Weather at Ayodhya Airport

Public forecast

Using degrees Celsius for public forecast. Weather courtesy of forecast.io.

Closest aviation weather report (METAR) to Ayodhya Airport

Closest report is Chaudhary Charan Singh International Airport, 67.9 nm (125.7 km) W.

2024/05/20 06:00 (retrieved 12 minutes ago)

VILK 200600Z 11004KT 5000 HZ NSC 37/22 Q1002 NOSIG

Closest aviation forecast (TAF) to Ayodhya Airport

Closest forecast is Chaudhary Charan Singh International Airport, 67.9 nm (125.7 km) W.

2024/05/20 06:42 (retrieved 0 seconds ago)

TAF VILK 200500Z 2006/2112 09007KT 5000 HZ NSC BECMG 2008/2010 32009KT 5000 HZ NSC BECMG 2013/2015 VRB02KT 5000 HZ SCT100 BECMG 2023/2101 4000 HZ FEW025 SCT100 BECMG 2108/2110 10008KT 5000 HZ FEW100